Time;durP1;ratioP1;P1;durP2;ratioP2;P2;SDS_P1;SDS_P2;PMS_P1;PMS_P2;Temp;Humidity;BMP_temperature;BMP_pressure;BME280_temperature;BME280_humidity;BME280_pressure;Samples;Min_cycle;Max_cycle;Signal;HPM_P1;HPM_P2
2022/10/01 00:01:50;;;;;;;4.53;2.67;;;;;;;15.00;73.84;99720.66;4889440;29;20095;-90
2022/10/01 00:04:16;;;;;;;7.18;2.80;;;;;;;15.02;73.59;99704.91;4877851;29;20049;-90
2022/10/01 00:06:41;;;;;;;6.65;3.15;;;;;;;15.06;73.28;99708.66;4867542;29;20033;-90
2022/10/01 00:09:07;;;;;;;5.50;2.47;;;;;;;15.22;72.72;99706.56;4893360;29;20031;-91
2022/10/01 00:11:33;;;;;;;5.68;2.58;;;;;;;15.39;72.34;99697.94;4889335;29;20032;-90
2022/10/01 00:13:59;;;;;;;5.80;2.88;;;;;;;15.38;72.06;99696.34;4880994;29;20027;-90
2022/10/01 00:16:25;;;;;;;3.55;2.80;;;;;;;15.18;72.71;99700.13;4851998;29;20124;-90
2022/10/01 00:18:52;;;;;;;3.53;2.47;;;;;;;15.15;72.88;99704.22;4877142;29;20099;-90
2022/10/01 00:21:20;;;;;;;3.00;2.50;;;;;;;15.11;72.98;99692.34;4905903;29;20458;-90
2022/10/01 00:23:45;;;;;;;6.72;2.55;;;;;;;15.07;72.96;99691.31;4897558;29;20024;-91
2022/10/01 00:26:13;;;;;;;5.28;3.03;;;;;;;14.99;72.95;99670.25;4851790;29;20036;-91
2022/10/01 00:28:39;;;;;;;4.80;2.65;;;;;;;15.18;72.65;99686.56;4859013;29;20046;-90
2022/10/01 00:31:08;;;;;;;5.93;2.55;;;;;;;15.11;73.01;99686.13;4889236;29;20035;-90
2022/10/01 00:33:36;;;;;;;4.90;2.70;;;;;;;15.08;73.21;99694.81;4902121;29;20032;-90
2022/10/01 00:36:02;;;;;;;6.20;3.90;;;;;;;14.97;73.67;99691.44;4886383;29;20032;-90
2022/10/01 00:38:28;;;;;;;5.03;2.83;;;;;;;15.04;73.39;99701.91;4872109;29;20032;-90
2022/10/01 00:40:54;;;;;;;3.70;2.55;;;;;;;14.97;73.99;99702.28;4904570;29;20035;-90
2022/10/01 00:43:45;;;;;;;3.70;2.30;;;;;;;15.05;73.36;99704.34;4903554;29;20061;-91
2022/10/01 00:46:36;;;;;;;8.05;2.83;;;;;;;15.13;73.13;99714.56;4886044;29;20384;-91
2022/10/01 00:49:10;;;;;;;5.03;2.80;;;;;;;14.98;73.52;99697.66;4899645;29;20031;-91
2022/10/01 00:51:38;;;;;;;4.47;2.30;;;;;;;15.05;72.67;99698.13;4905136;29;20043;-91
2022/10/01 00:54:32;;;;;;;2.70;2.00;;;;;;;15.42;71.00;99727.22;4882170;29;20491;-91
2022/10/01 00:56:58;;;;;;;2.85;2.00;;;;;;;15.43;70.51;99707.09;4898691;29;20044;-90
2022/10/01 00:59:24;;;;;;;3.72;2.03;;;;;;;15.34;70.03;99693.38;4878952;29;20550;-91
2022/10/01 01:01:50;;;;;;;4.47;2.13;;;;;;;15.38;70.32;99703.66;4904247;29;20429;-89
2022/10/01 01:04:15;;;;;;;2.83;2.05;;;;;;;15.28;70.62;99697.28;4892579;29;20146;-90
2022/10/01 01:06:52;;;;;;;4.05;2.15;;;;;;;15.31;70.44;99698.59;4866839;29;20392;-91
2022/10/01 01:09:19;;;;;;;6.97;2.30;;;;;;;15.25;70.09;99691.59;4868677;29;20512;-91
2022/10/01 01:11:53;;;;;;;5.57;2.50;;;;;;;15.18;71.81;99691.97;4903843;29;20127;-90
2022/10/01 01:14:28;;;;;;;4.90;2.25;;;;;;;15.09;71.82;99677.47;4907738;29;20433;-90
2022/10/01 01:17:06;;;;;;;4.50;2.55;;;;;;;15.09;72.21;99677.47;4866959;29;20032;-91
2022/10/01 01:19:42;;;;;;;4.63;2.70;;;;;;;15.00;73.15;99696.25;4872905;29;20019;-90
2022/10/01 01:22:08;;;;;;;5.07;2.85;;;;;;;14.74;73.51;99665.94;4919341;29;20031;-90
2022/10/01 01:24:59;;;;;;;11.05;2.88;;;;;;;14.79;73.89;99684.03;4874406;29;20036;-90
2022/10/01 01:27:37;;;;;;;5.13;2.40;;;;;;;14.69;74.05;99679.53;4881221;29;20032;-90
2022/10/01 01:30:10;;;;;;;5.93;2.88;;;;;;;14.48;74.36;99657.25;4894575;29;20106;-91
2022/10/01 01:32:55;;;;;;;5.57;2.88;;;;;;;14.57;74.21;99673.72;4888708;29;20055;-90
2022/10/01 01:35:32;;;;;;;4.68;2.90;;;;;;;14.52;74.29;99669.91;4899508;29;20468;-90
2022/10/01 01:38:03;;;;;;;4.30;2.75;;;;;;;14.50;74.42;99672.13;4867184;29;20033;-90
2022/10/01 01:40:29;;;;;;;5.45;2.80;;;;;;;14.51;74.31;99667.53;4885836;29;20114;-90
2022/10/01 01:42:55;;;;;;;4.15;2.65;;;;;;;14.66;74.26;99678.22;4903163;29;20035;-90
2022/10/01 01:45:23;;;;;;;4.18;2.40;;;;;;;14.56;74.58;99664.78;4887210;29;20082;-90
2022/10/01 01:47:48;;;;;;;4.75;2.65;;;;;;;14.43;74.75;99651.91;4884470;29;20027;-90
2022/10/01 01:50:14;;;;;;;6.82;2.90;;;;;;;14.47;74.90;99680.81;4900031;29;20023;-91
2022/10/01 01:52:40;;;;;;;4.88;2.70;;;;;;;14.39;75.25;99680.66;4903452;29;20024;-90
2022/10/01 01:55:07;;;;;;;3.65;2.30;;;;;;;14.29;75.30;99679.63;4899758;29;20100;-90
2022/10/01 01:57:34;;;;;;;4.82;2.50;;;;;;;14.35;75.78;99692.03;4884319;29;20643;-90
2022/10/01 02:00:01;;;;;;;4.10;2.70;;;;;;;14.32;76.09;99689.91;4905121;29;20467;-90
2022/10/01 02:02:28;;;;;;;4.68;3.10;;;;;;;14.28;75.67;99694.28;4917404;29;20024;-90
2022/10/01 02:04:55;;;;;;;5.18;2.78;;;;;;;14.21;75.70;99696.50;4912593;29;20092;-91
2022/10/01 02:07:27;;;;;;;5.93;3.00;;;;;;;14.29;75.87;99709.44;4902528;29;20486;-91
2022/10/01 02:10:16;;;;;;;6.20;2.67;;;;;;;14.22;76.08;99692.72;4905465;29;20036;-90
2022/10/01 02:12:53;;;;;;;3.13;2.30;;;;;;;14.21;76.22;99707.34;4899609;29;20032;-91
2022/10/01 02:15:36;;;;;;;3.90;2.50;;;;;;;14.03;76.32;99695.31;4932901;29;20032;-90
2022/10/01 02:18:08;;;;;;;;;;;;;;;14.08;76.47;99706.09;4888714;29;20035;-90
2022/10/01 02:20:40;;;;;;;4.43;2.10;;;;;;;13.97;76.64;99707.28;4897525;29;20009;-91
2022/10/01 02:23:10;;;;;;;5.30;2.47;;;;;;;13.87;76.52;99689.22;4850206;29;20096;-90
2022/10/01 02:25:42;;;;;;;5.38;2.70;;;;;;;13.83;76.90;99690.06;4902706;29;20403;-91
2022/10/01 02:28:10;;;;;;;4.85;2.60;;;;;;;13.92;76.50;99705.44;4902957;29;20102;-90
2022/10/01 02:30:35;;;;;;;3.35;2.70;;;;;;;13.95;76.20;99696.72;4865552;29;20592;-91
2022/10/01 02:33:03;;;;;;;5.78;2.88;;;;;;;13.90;76.00;99680.53;4865309;29;20060;-91
2022/10/01 02:35:29;;;;;;;4.10;2.70;;;;;;;13.92;76.15;99678.34;4884940;29;20518;-90
2022/10/01 02:37:55;;;;;;;3.70;2.25;;;;;;;13.90;76.76;99682.41;4887150;29;20054;-91
2022/10/01 02:40:25;;;;;;;6.05;2.42;;;;;;;13.85;76.72;99679.75;4897427;29;20036;-91
2022/10/01 02:42:52;;;;;;;6.20;2.45;;;;;;;13.77;76.73;99681.16;4866402;29;20490;-91
2022/10/01 02:45:21;;;;;;;6.07;2.58;;;;;;;13.78;76.64;99688.22;4877902;29;20084;-90
2022/10/01 02:47:49;;;;;;;3.90;2.85;;;;;;;13.82;76.44;99693.84;4865163;29;20119;-90
2022/10/01 02:50:15;;;;;;;3.83;2.47;;;;;;;13.85;75.89;99677.06;4896576;29;20053;-91
2022/10/01 02:52:56;;;;;;;3.25;2.60;;;;;;;13.79;76.34;99684.41;4902645;29;20023;-90
2022/10/01 02:55:29;;;;;;;3.73;2.80;;;;;;;13.80;76.78;99680.63;4902767;29;20032;-91
2022/10/01 02:57:55;;;;;;;4.00;2.55;;;;;;;13.79;77.03;99689.00;4886871;29;20487;-90
2022/10/01 03:00:21;;;;;;;9.20;3.15;;;;;;;13.80;76.62;99682.50;4882970;29;20021;-91
2022/10/01 03:02:47;;;;;;;10.32;3.05;;;;;;;13.78;76.73;99695.50;4849338;29;20073;-91
2022/10/01 03:05:13;;;;;;;5.70;2.53;;;;;;;13.74;76.86;99690.66;4895361;29;20071;-91
2022/10/01 03:07:39;;;;;;;4.13;2.83;;;;;;;13.70;76.72;99695.03;4902165;29;20504;-91
2022/10/01 03:10:06;;;;;;;5.18;2.42;;;;;;;13.68;77.11;99696.41;4884375;29;20511;-91
2022/10/01 03:12:31;;;;;;;3.58;2.40;;;;;;;13.69;76.45;99698.00;4865457;29;20035;-90
2022/10/01 03:14:57;;;;;;;4.53;2.55;;;;;;;13.76;76.16;99693.09;4874925;29;20029;-90
2022/10/01 03:17:23;;;;;;;3.67;2.45;;;;;;;13.78;76.93;99703.63;4864917;29;20028;-90
2022/10/01 03:19:48;;;;;;;6.65;2.60;;;;;;;13.80;77.03;99712.25;4889020;29;20145;-90
2022/10/01 03:22:17;;;;;;;4.28;2.72;;;;;;;13.61;76.96;99693.19;4901922;29;20062;-90
2022/10/01 03:24:42;;;;;;;4.95;3.35;;;;;;;13.57;77.55;99690.22;4887349;29;20025;-91
2022/10/01 03:27:08;;;;;;;4.30;2.75;;;;;;;13.49;77.36;99682.72;4865233;29;20445;-91
2022/10/01 03:29:33;;;;;;;9.18;2.47;;;;;;;13.46;77.28;99680.56;4869840;29;20039;-90
2022/10/01 03:31:59;;;;;;;9.38;2.60;;;;;;;13.45;77.71;99673.56;4902197;29;20508;-90
2022/10/01 03:34:24;;;;;;;4.10;2.70;;;;;;;13.42;78.04;99674.91;4889689;29;20032;-90
2022/10/01 03:36:51;;;;;;;5.25;2.53;;;;;;;13.43;77.66;99681.94;4864546;29;20036;-90
2022/10/01 03:39:17;;;;;;;5.25;2.45;;;;;;;13.44;77.25;99678.13;4854378;29;20471;-90
2022/10/01 03:41:43;;;;;;;5.70;2.83;;;;;;;13.49;77.70;99671.91;4849196;29;20036;-90
2022/10/01 03:44:09;;;;;;;5.72;2.90;;;;;;;13.44;77.14;99671.91;4879096;29;20034;-90
2022/10/01 03:46:34;;;;;;;6.63;2.80;;;;;;;13.42;77.65;99672.19;4902079;29;20031;-91
2022/10/01 03:49:00;;;;;;;5.30;2.72;;;;;;;13.46;77.03;99680.56;4895795;29;20051;-90
2022/10/01 03:51:28;;;;;;;3.90;2.50;;;;;;;13.45;77.20;99685.16;4869421;29;20123;-91
2022/10/01 03:53:56;;;;;;;4.93;2.70;;;;;;;13.45;77.08;99687.88;4892371;29;20027;-90
2022/10/01 03:56:22;;;;;;;5.78;2.63;;;;;;;13.41;77.37;99686.81;4890660;29;20126;-91
2022/10/01 03:58:48;;;;;;;4.05;2.55;;;;;;;13.42;77.53;99701.16;4886116;29;20512;-90
2022/10/01 04:01:13;;;;;;;5.60;3.10;;;;;;;13.38;77.50;99705.50;4871998;29;20067;-91
2022/10/01 04:03:39;;;;;;;6.60;3.30;;;;;;;13.44;77.47;99715.19;4905395;29;20507;-90
2022/10/01 04:06:04;;;;;;;4.28;2.90;;;;;;;13.47;77.65;99726.28;4905913;29;20517;-90
2022/10/01 04:08:30;;;;;;;6.05;3.00;;;;;;;13.44;77.88;99734.94;4903778;29;20451;-91
2022/10/01 04:10:55;;;;;;;5.75;3.22;;;;;;;13.37;77.44;99728.22;4887145;29;20032;-90
2022/10/01 04:13:21;;;;;;;5.30;2.90;;;;;;;13.34;77.42;99733.09;4870885;29;20088;-91
2022/10/01 04:15:47;;;;;;;5.65;2.65;;;;;;;13.26;77.29;99722.84;4871257;29;20040;-90
2022/10/01 04:18:13;;;;;;;4.53;3.08;;;;;;;13.33;77.58;99728.78;4871654;29;20347;-90
2022/10/01 04:20:38;;;;;;;7.13;2.97;;;;;;;13.42;77.70;99730.91;4906038;29;20028;-90
2022/10/01 04:23:04;;;;;;;6.55;3.50;;;;;;;13.33;77.80;99742.28;4889617;29;20028;-90
2022/10/01 04:25:29;;;;;;;7.75;3.00;;;;;;;13.25;77.57;99737.44;4886815;29;20471;-90
2022/10/01 04:27:56;;;;;;;4.28;3.03;;;;;;;13.40;77.67;99757.41;4885951;29;20104;-90
2022/10/01 04:30:21;;;;;;;4.72;2.80;;;;;;;13.27;77.71;99747.97;4902150;29;20023;-90
2022/10/01 04:32:47;;;;;;;3.67;3.00;;;;;;;13.27;77.90;99737.97;4889470;29;20031;-90
2022/10/01 04:35:12;;;;;;;5.43;2.97;;;;;;;13.26;78.34;99727.41;4873443;29;20028;-90
2022/10/01 04:37:38;;;;;;;8.55;3.70;;;;;;;13.26;77.72;99732.81;4886235;29;20467;-91
2022/10/01 04:40:04;;;;;;;4.78;3.05;;;;;;;13.28;77.29;99733.34;4899767;29;20030;-90
2022/10/01 04:42:30;;;;;;;5.72;3.17;;;;;;;13.26;77.47;99730.94;4904333;29;20529;-91
2022/10/01 04:44:56;;;;;;;6.35;3.05;;;;;;;13.27;77.27;99729.03;4887845;29;20029;-90
2022/10/01 04:47:21;;;;;;;5.88;3.67;;;;;;;13.37;77.40;99725.53;4867358;29;20029;-90
2022/10/01 04:49:47;;;;;;;9.45;3.42;;;;;;;13.37;76.86;99723.63;4891228;29;20114;-91
2022/10/01 04:52:12;;;;;;;5.70;3.38;;;;;;;13.38;77.43;99714.41;4904425;29;20024;-91
2022/10/01 04:54:38;;;;;;;6.03;3.63;;;;;;;13.47;77.04;99720.06;4902513;29;20047;-90
2022/10/01 04:57:03;;;;;;;6.60;3.63;;;;;;;13.48;76.65;99719.75;4886723;29;20048;-90
2022/10/01 04:59:30;;;;;;;5.75;3.78;;;;;;;13.64;76.41;99722.41;4904999;29;20107;-89
2022/10/01 05:01:56;;;;;;;5.47;3.20;;;;;;;13.66;76.72;99715.63;4904877;29;20038;-90
2022/10/01 05:04:21;;;;;;;7.60;3.30;;;;;;;13.63;77.17;99708.03;4910887;29;20508;-90
2022/10/01 05:06:47;;;;;;;7.00;3.20;;;;;;;13.63;77.19;99709.94;4887025;29;20397;-90
2022/10/01 05:09:12;;;;;;;4.45;3.25;;;;;;;13.65;76.93;99702.34;4877565;29;20012;-90
2022/10/01 05:11:38;;;;;;;8.27;3.70;;;;;;;13.73;76.79;99709.88;4905036;29;20026;-90
2022/10/01 05:14:04;;;;;;;5.93;3.58;;;;;;;13.67;76.83;99700.19;4882221;29;20079;-90
2022/10/01 05:16:29;;;;;;;8.23;3.42;;;;;;;13.73;76.78;99701.75;4901736;29;20032;-90
2022/10/01 05:18:55;;;;;;;9.25;4.03;;;;;;;13.80;76.07;99704.16;4882062;29;20032;-91
2022/10/01 05:21:20;;;;;;;7.43;3.58;;;;;;;13.78;76.37;99693.63;4883216;29;20027;-91
2022/10/01 05:23:46;;;;;;;7.93;3.50;;;;;;;13.88;76.40;99715.19;4875161;29;20083;-91
2022/10/01 05:26:11;;;;;;;8.82;3.70;;;;;;;13.98;75.93;99717.00;4920034;29;20478;-91
2022/10/01 05:28:43;;;;;;;10.55;3.85;;;;;;;14.01;75.61;99705.63;4900854;29;20086;-90
2022/10/01 05:31:08;;;;;;;8.57;3.80;;;;;;;14.18;75.34;99720.66;4871396;29;20059;-91
2022/10/01 05:33:34;;;;;;;5.97;3.78;;;;;;;14.13;75.49;99716.06;4904495;29;20047;-90
2022/10/01 05:35:59;;;;;;;5.40;3.63;;;;;;;14.23;75.11;99721.41;4920497;29;20030;-91
2022/10/01 05:38:25;;;;;;;8.55;3.97;;;;;;;14.30;75.30;99719.19;4918367;29;20031;-91
2022/10/01 05:40:50;;;;;;;5.45;3.80;;;;;;;14.35;74.89;99716.41;4884780;29;20427;-91
2022/10/01 05:43:17;;;;;;;9.25;3.42;;;;;;;14.43;75.28;99714.22;4885423;29;20024;-91
2022/10/01 05:45:43;;;;;;;5.65;3.40;;;;;;;14.58;74.53;99719.50;4888252;29;20038;-91
2022/10/01 05:48:08;;;;;;;5.30;3.30;;;;;;;14.62;74.10;99715.13;4904359;29;20114;-91
2022/10/01 05:50:38;;;;;;;8.52;3.17;;;;;;;14.81;73.87;99731.44;4884642;29;20092;-91
2022/10/01 05:53:04;;;;;;;10.93;4.53;;;;;;;14.83;73.13;99723.84;4885226;29;20024;-93
2022/10/01 05:55:33;;;;;;;7.25;3.67;;;;;;;15.10;72.64;99750.38;4904596;29;20471;-94
2022/10/01 05:58:03;;;;;;;11.05;3.92;;;;;;;15.04;72.20;99719.00;4920129;29;20044;-90
2022/10/01 06:00:29;;;;;;;6.97;3.90;;;;;;;15.23;71.80;99735.31;4867768;29;20033;-90
2022/10/01 06:02:56;;;;;;;6.22;3.17;;;;;;;15.33;71.71;99726.22;4850766;29;20040;-90
2022/10/01 06:05:21;;;;;;;6.50;3.05;;;;;;;15.46;71.09;99728.25;4883496;29;20400;-89
2022/10/01 06:07:48;;;;;;;6.22;3.17;;;;;;;15.52;70.09;99713.50;4887807;29;20027;-89
2022/10/01 06:10:13;;;;;;;6.22;3.35;;;;;;;15.66;70.11;99707.34;4868901;29;20181;-89
2022/10/01 06:12:39;;;;;;;6.30;4.03;;;;;;;15.75;69.43;99692.84;4865768;29;20052;-89
2022/10/01 06:15:04;;;;;;;6.07;3.25;;;;;;;15.91;69.78;99709.69;4893620;29;20050;-89
2022/10/01 06:17:30;;;;;;;7.93;3.42;;;;;;;16.12;69.01;99712.06;4902986;29;20030;-89
2022/10/01 06:19:56;;;;;;;7.70;3.20;;;;;;;16.38;68.65;99726.06;4874230;29;20024;-88
2022/10/01 06:22:21;;;;;;;8.25;3.00;;;;;;;16.41;68.67;99709.13;4915431;29;20056;-89
2022/10/01 06:24:47;;;;;;;6.57;3.28;;;;;;;16.63;67.90;99710.41;4902746;29;20095;-90
2022/10/01 06:27:12;;;;;;;5.70;3.70;;;;;;;16.85;67.21;99717.88;4887155;29;20038;-90
2022/10/01 06:29:38;;;;;;;8.50;3.58;;;;;;;16.92;66.98;99705.50;4888538;29;20032;-89
2022/10/01 06:32:03;;;;;;;8.63;3.20;;;;;;;17.03;66.61;99718.91;4865496;29;20033;-89
2022/10/01 06:34:28;;;;;;;7.88;3.65;;;;;;;17.08;66.06;99721.50;4874836;29;20039;-89
2022/10/01 06:36:54;;;;;;;8.52;3.42;;;;;;;17.27;65.76;99722.22;4884382;29;20024;-89
2022/10/01 06:39:19;;;;;;;7.07;3.40;;;;;;;17.44;65.44;99720.78;4902508;29;20027;-89
2022/10/01 06:41:46;;;;;;;5.57;3.38;;;;;;;17.60;64.93;99724.78;4902767;29;20016;-89
2022/10/01 06:44:12;;;;;;;8.10;3.90;;;;;;;17.77;64.21;99727.63;4891802;29;20024;-89
2022/10/01 06:46:37;;;;;;;8.15;3.35;;;;;;;17.91;63.93;99721.38;4849956;29;20092;-90
2022/10/01 06:49:03;;;;;;;12.10;3.90;;;;;;;18.04;63.66;99706.88;4877985;29;20028;-90
2022/10/01 06:54:13;;;;;;;6.18;3.33;;;;;;;18.33;63.42;99703.69;4902115;29;20034;-89
2022/10/01 06:56:38;;;;;;;9.10;3.17;;;;;;;18.46;62.95;99701.19;4883872;29;20034;-89
2022/10/01 06:59:04;;;;;;;4.68;2.55;;;;;;;18.65;62.19;99700.97;4886666;29;20114;-89
2022/10/01 07:01:31;;;;;;;4.43;2.35;;;;;;;18.75;61.38;99697.97;4903191;29;20376;-89
2022/10/01 07:03:57;;;;;;;4.38;2.95;;;;;;;18.96;59.45;99695.50;4918369;29;20467;-89
2022/10/01 07:06:24;;;;;;;6.13;3.08;;;;;;;19.10;59.59;99688.00;4902941;29;20039;-90
2022/10/01 07:08:50;;;;;;;3.80;2.47;;;;;;;19.31;59.46;99687.41;4894445;29;20044;-89
2022/10/01 07:11:15;;;;;;;5.20;2.55;;;;;;;19.55;58.63;99701.41;4865294;29;20020;-90
2022/10/01 07:13:41;;;;;;;3.58;2.22;;;;;;;19.68;58.10;99691.44;4872271;29;20023;-90
2022/10/01 07:16:06;;;;;;;3.78;2.53;;;;;;;19.79;58.30;99683.75;4918417;29;20486;-89
2022/10/01 07:18:36;;;;;;;3.70;2.60;;;;;;;19.92;57.81;99677.31;4932548;29;20039;-90
2022/10/01 07:21:02;;;;;;;3.80;2.03;;;;;;;20.02;57.57;99681.63;4899681;29;20028;-90
2022/10/01 07:23:27;;;;;;;3.90;2.30;;;;;;;20.26;56.82;99678.38;4885352;29;20024;-90
2022/10/01 07:25:53;;;;;;;5.93;2.30;;;;;;;20.42;55.78;99675.94;4903182;29;20024;-89
2022/10/01 07:28:19;;;;;;;7.15;4.15;;;;;;;20.64;55.79;99672.16;4921458;29;20505;-90
2022/10/01 07:30:59;;;;;;;4.80;2.75;;;;;;;20.96;54.45;99687.16;4871408;29;20403;-90
2022/10/01 07:33:24;;;;;;;4.10;2.38;;;;;;;21.20;52.55;99688.44;4889940;29;20095;-91
2022/10/01 07:35:50;;;;;;;3.20;2.13;;;;;;;21.32;51.88;99668.56;4906380;29;20031;-89
2022/10/01 07:38:15;;;;;;;5.25;2.30;;;;;;;21.51;51.14;99659.91;4938252;29;20100;-90
2022/10/01 07:40:41;;;;;;;5.43;2.42;;;;;;;21.65;51.35;99660.44;4919508;29;20020;-90
2022/10/01 07:43:07;;;;;;;5.13;2.58;;;;;;;21.79;52.25;99658.22;4871520;29;20103;-90
2022/10/01 07:45:32;;;;;;;4.97;2.60;;;;;;;21.98;52.19;99663.19;4905157;29;20031;-89
2022/10/01 07:47:59;;;;;;;6.28;2.60;;;;;;;22.07;52.18;99659.56;4938216;29;20031;-90
2022/10/01 07:50:24;;;;;;;5.32;2.25;;;;;;;22.12;51.41;99645.63;4888547;29;20036;-90
2022/10/01 07:52:54;;;;;;;3.55;2.17;;;;;;;22.25;51.29;99646.50;4886891;29;20031;-90
2022/10/01 07:55:20;;;;;;;4.35;2.40;;;;;;;22.37;51.22;99652.81;4903334;29;20032;-91
2022/10/01 07:57:53;;;;;;;4.93;2.28;;;;;;;22.48;52.15;99646.88;4890120;29;20119;-90
2022/10/01 08:00:18;;;;;;;9.13;2.75;;;;;;;22.57;52.29;99636.59;4870567;29;20096;-90
2022/10/01 08:02:52;;;;;;;4.40;2.20;;;;;;;22.75;49.16;99645.41;4867884;29;20040;-91
2022/10/01 08:05:19;;;;;;;4.38;2.10;;;;;;;22.79;49.01;99635.34;4900577;29;20446;-90
2022/10/01 08:07:45;;;;;;;7.30;2.80;;;;;;;22.83;49.87;99632.69;4890260;29;20034;-90
2022/10/01 08:10:11;;;;;;;4.82;2.33;;;;;;;22.84;49.88;99635.09;4871519;29;20029;-90
2022/10/01 08:12:37;;;;;;;2.63;2.17;;;;;;;22.80;49.83;99614.97;4853396;29;20048;-92
2022/10/01 08:15:03;;;;;;;6.32;2.40;;;;;;;22.78;49.97;99601.56;4852572;29;20032;-93
2022/10/01 08:17:29;;;;;;;4.28;2.50;;;;;;;22.89;50.91;99598.34;4852637;29;20025;-93
2022/10/01 08:19:54;;;;;;;3.35;2.53;;;;;;;22.98;50.97;99615.53;4868004;29;20148;-91
2022/10/01 08:22:19;;;;;;;3.53;2.70;;;;;;;23.12;49.95;99615.97;4899867;29;20032;-91
2022/10/01 08:24:45;;;;;;;6.05;2.30;;;;;;;23.19;49.14;99613.44;4891629;29;20044;-91
2022/10/01 08:27:14;;;;;;;4.82;2.22;;;;;;;23.31;48.80;99603.56;4868116;29;20036;-92
2022/10/01 08:29:42;;;;;;;17.90;2.70;;;;;;;23.49;48.33;99604.88;4905536;29;20031;-91
2022/10/01 08:32:09;;;;;;;7.40;2.33;;;;;;;23.65;47.66;99602.16;4921130;29;20479;-91
2022/10/01 08:34:35;;;;;;;2.83;1.77;;;;;;;23.74;46.62;99608.31;4891222;29;20472;-91
2022/10/01 08:37:01;;;;;;;2.75;1.90;;;;;;;23.90;47.37;99619.38;4867954;29;20040;-91
2022/10/01 08:39:26;;;;;;;8.23;2.17;;;;;;;24.05;46.41;99620.56;4886476;29;20498;-92
2022/10/01 08:42:28;;;;;;;2.72;1.90;;;;;;;24.34;46.26;99640.53;4904844;29;20455;-92
2022/10/01 08:44:54;;;;;;;2.35;1.70;;;;;;;24.48;45.25;99629.09;4920104;29;20035;-91
2022/10/01 08:47:37;;;;;;;4.90;2.10;;;;;;;24.67;45.16;99631.16;4904481;29;20099;-92
2022/10/01 08:50:30;;;;;;;3.55;2.38;;;;;;;24.92;44.54;99617.97;4903203;29;20037;-90
2022/10/01 08:53:01;;;;;;;4.45;1.65;;;;;;;25.05;42.77;99616.69;4899980;29;20032;-90
2022/10/01 08:55:27;;;;;;;3.53;2.10;;;;;;;25.00;43.25;99595.72;4933923;29;20496;-91
2022/10/01 08:58:00;;;;;;;3.65;1.80;;;;;;;25.17;44.09;99610.25;4889293;29;20268;-91
2022/10/01 09:00:26;;;;;;;3.25;1.63;;;;;;;25.34;42.62;99609.88;4884539;29;20025;-92
2022/10/01 09:02:56;;;;;;;2.75;1.73;;;;;;;25.43;42.38;99595.88;4851603;29;20040;-91
2022/10/01 09:05:33;;;;;;;3.30;1.83;;;;;;;25.52;41.89;99590.91;4900606;29;20031;-91
2022/10/01 09:08:42;;;;;;;2.90;1.50;;;;;;;25.75;41.11;99610.28;4905882;29;20486;-90
2022/10/01 09:11:14;;;;;;;5.50;2.38;;;;;;;25.60;42.23;99570.59;4898378;29;20036;-92
2022/10/01 09:14:05;;;;;;;2.67;1.52;;;;;;;25.86;41.89;99596.69;4901896;29;20048;-91
2022/10/01 09:16:46;;;;;;;4.43;2.45;;;;;;;25.90;41.46;99602.28;4918162;29;20056;-91
2022/10/01 09:19:45;;;;;;;4.45;2.03;;;;;;;25.95;41.28;99582.69;4909351;29;20103;-91
2022/10/01 09:22:39;;;;;;;3.63;1.95;;;;;;;26.00;40.98;99566.63;4890839;29;20030;-91
2022/10/01 09:25:13;;;;;;;2.97;2.00;;;;;;;26.14;40.67;99577.09;4902102;29;20092;-91
2022/10/01 09:27:38;;;;;;;4.47;2.38;;;;;;;26.20;40.56;99561.81;4867856;29;20048;-90
2022/10/01 09:30:06;;;;;;;3.65;1.92;;;;;;;26.37;40.54;99574.31;4879439;29;20031;-91
2022/10/01 09:32:42;;;;;;;7.53;2.35;;;;;;;26.52;39.38;99580.06;4904162;29;20030;-90
2022/10/01 09:35:18;;;;;;;3.88;2.35;;;;;;;26.54;39.08;99575.78;4901498;29;20452;-91
2022/10/01 09:37:48;;;;;;;4.03;1.77;;;;;;;26.72;36.80;99575.28;4882499;29;20085;-90
2022/10/01 09:40:19;;;;;;;3.88;1.42;;;;;;;26.89;36.38;99571.94;4898257;29;20091;-91
2022/10/01 09:42:46;;;;;;;3.63;1.88;;;;;;;27.04;36.52;99566.63;4904328;29;20406;-91
2022/10/01 09:45:13;;;;;;;4.32;1.70;;;;;;;27.24;35.91;99565.34;4870143;29;20548;-91
2022/10/01 09:47:42;;;;;;;2.58;1.60;;;;;;;27.39;35.73;99566.28;4852150;29;20100;-91
2022/10/01 09:50:10;;;;;;;2.13;1.67;;;;;;;27.55;35.85;99571.63;4881147;29;20114;-90
2022/10/01 09:52:37;;;;;;;3.15;1.90;;;;;;;27.54;36.66;99562.53;4904417;29;20120;-91
2022/10/01 09:55:09;;;;;;;3.20;2.00;;;;;;;27.66;36.70;99574.50;4889111;29;20086;-91
2022/10/01 09:57:42;;;;;;;6.40;2.40;;;;;;;27.58;36.96;99546.75;4919546;29;20031;-92
2022/10/01 10:00:09;;;;;;;5.07;2.30;;;;;;;27.68;37.43;99559.09;4885871;29;20440;-92
2022/10/01 10:02:57;;;;;;;3.88;2.50;;;;;;;27.82;37.32;99550.94;4867832;29;20037;-91
2022/10/01 10:05:26;;;;;;;4.00;2.13;;;;;;;27.78;37.08;99541.81;4902466;29;20048;-91
2022/10/01 10:08:02;;;;;;;2.45;1.58;;;;;;;27.82;35.33;99533.56;4869308;29;20028;-92
2022/10/01 10:10:34;;;;;;;3.80;1.70;;;;;;;27.97;35.53;99540.03;4849755;29;20029;-91
2022/10/01 10:13:12;;;;;;;3.03;1.50;;;;;;;28.07;34.02;99544.88;4848958;29;20025;-92
2022/10/01 10:15:58;;;;;;;2.70;1.60;;;;;;;28.19;33.46;99544.56;4900520;29;20036;-92
2022/10/01 10:18:27;;;;;;;2.05;1.63;;;;;;;28.19;32.37;99527.19;4899292;29;20036;-91
2022/10/01 10:20:55;;;;;;;2.17;1.40;;;;;;;28.27;32.42;99522.50;4851288;29;20103;-91
2022/10/01 10:23:24;;;;;;;1.98;1.23;;;;;;;28.31;32.45;99529.63;4882003;29;20031;-91
2022/10/01 10:26:01;;;;;;;6.00;1.60;;;;;;;28.36;32.51;99532.03;4866932;29;20024;-92
2022/10/01 10:28:38;;;;;;;2.30;1.60;;;;;;;28.40;32.40;99532.84;4850525;29;20502;-92
2022/10/01 10:31:08;;;;;;;3.10;1.73;;;;;;;28.41;33.52;99534.47;4881571;29;20032;-90
2022/10/01 10:33:34;;;;;;;3.25;1.92;;;;;;;28.42;34.15;99536.03;4884456;29;20101;-91
2022/10/01 10:36:02;;;;;;;5.15;1.80;;;;;;;28.53;34.46;99551.97;4868806;29;20032;-93
2022/10/01 10:38:32;;;;;;;4.03;1.67;;;;;;;28.52;35.03;99550.41;4867047;29;20116;-91
2022/10/01 10:40:59;;;;;;;4.63;1.80;;;;;;;28.41;33.44;99540.00;4865405;29;20027;-91
2022/10/01 10:43:27;;;;;;;2.78;1.75;;;;;;;28.44;32.54;99532.09;4867906;29;20575;-90
2022/10/01 10:45:55;;;;;;;3.78;1.70;;;;;;;28.48;32.27;99528.16;4916383;29;20380;-90
2022/10/01 10:48:23;;;;;;;2.80;1.45;;;;;;;28.63;33.42;99544.91;4868035;29;20483;-90
2022/10/01 10:50:57;;;;;;;2.55;1.40;;;;;;;28.61;33.22;99534.22;4881065;29;20466;-91
2022/10/01 10:53:24;;;;;;;3.63;1.80;;;;;;;28.62;33.09;99527.50;4881495;29;20025;-93
2022/10/01 10:55:59;;;;;;;4.15;1.80;;;;;;;28.64;34.56;99519.59;4850222;29;20496;-90
2022/10/01 10:58:26;;;;;;;3.72;1.70;;;;;;;28.69;34.77;99535.84;4867201;29;20469;-90
2022/10/01 11:00:52;;;;;;;3.17;1.70;;;;;;;28.54;33.95;99520.31;4900827;29;20490;-90
2022/10/01 11:03:20;;;;;;;3.25;1.80;;;;;;;28.51;32.72;99530.19;4891641;29;20055;-90
2022/10/01 11:05:50;;;;;;;3.03;1.60;;;;;;;28.38;31.69;99513.06;4885048;29;20032;-91
2022/10/01 11:08:20;;;;;;;2.60;1.52;;;;;;;28.48;31.47;99530.94;4902036;29;20088;-91
2022/10/01 11:11:04;;;;;;;3.20;1.23;;;;;;;28.45;29.89;99530.91;4888213;29;20021;-91
2022/10/01 11:13:49;;;;;;;3.97;2.22;;;;;;;28.35;32.54;99536.00;4905840;29;20107;-91
2022/10/01 11:16:21;;;;;;;5.82;2.00;;;;;;;28.27;33.44;99525.25;4906341;29;20042;-91
2022/10/01 11:19:18;;;;;;;6.82;2.10;;;;;;;28.25;33.17;99525.63;4917199;29;20525;-90
2022/10/01 11:21:57;;;;;;;3.33;1.65;;;;;;;28.19;33.35;99527.19;4903358;29;20028;-89
2022/10/01 11:24:29;;;;;;;3.08;2.10;;;;;;;28.09;33.15;99525.13;4896590;29;20027;-90
2022/10/01 11:27:26;;;;;;;4.05;2.08;;;;;;;28.02;32.33;99521.09;4906917;29;20035;-90
2022/10/01 11:30:27;;;;;;;7.68;1.98;;;;;;;28.12;32.13;99533.47;4890514;29;20391;-91
2022/10/01 11:33:03;;;;;;;2.28;1.67;;;;;;;28.07;32.56;99524.69;4854040;29;20044;-90
2022/10/01 11:35:29;;;;;;;2.20;1.48;;;;;;;28.05;32.68;99513.22;4888929;29;20089;-92
2022/10/01 11:38:16;;;;;;;4.25;1.73;;;;;;;28.02;34.22;99510.03;4921836;29;20562;-90
2022/10/01 11:40:43;;;;;;;4.90;1.80;;;;;;;27.84;35.25;99498.00;4901177;29;20503;-91
2022/10/01 11:43:39;;;;;;;5.72;2.15;;;;;;;27.77;37.20;99503.47;4868788;29;20480;-89
2022/10/01 11:46:11;;;;;;;7.63;2.30;;;;;;;27.68;37.37;99497.44;4884626;29;20025;-92
2022/10/01 11:49:04;;;;;;;2.67;1.83;;;;;;;27.59;38.63;99484.72;4875266;29;20459;-94